Time;durP1;ratioP1;P1;durP2;ratioP2;P2;SDS_P1;SDS_P2;PMS_P1;PMS_P2;Temp;Humidity;BMP_temperature;BMP_pressure;BME280_temperature;BME280_humidity;BME280_pressure;Samples;Min_cycle;Max_cycle;Signal;HPM_P1;HPM_P2
2021/04/16 00:00:42;;;;;;;4.15;1.60;;;4.70;59.50;;;;;;2488761;55;21020;-65
2021/04/16 00:03:08;;;;;;;3.58;1.77;;;4.70;59.50;;;;;;2260400;55;21355;-64
2021/04/16 00:05:35;;;;;;;4.57;1.73;;;4.70;59.50;;;;;;2273476;55;21911;-64
2021/04/16 00:08:03;;;;;;;3.33;1.60;;;4.70;59.60;;;;;;2492700;55;20973;-64
2021/04/16 00:10:41;;;;;;;2.97;1.60;;;4.70;59.70;;;;;;2271804;55;21068;-65
2021/04/16 00:13:08;;;;;;;3.78;1.60;;;4.70;59.70;;;;;;2260388;55;20930;-66
2021/04/16 00:15:36;;;;;;;4.40;1.80;;;4.60;59.70;;;;;;2266687;55;20952;-63
2021/04/16 00:18:04;;;;;;;3.20;1.50;;;4.60;59.70;;;;;;2271913;55;21043;-63
2021/04/16 00:20:35;;;;;;;3.95;1.50;;;4.60;59.60;;;;;;2488224;55;21036;-65
2021/04/16 00:23:02;;;;;;;3.22;1.42;;;4.60;59.70;;;;;;2260247;55;21033;-66
2021/04/16 00:25:29;;;;;;;3.85;1.50;;;4.60;59.70;;;;;;2280118;55;21601;-64
2021/04/16 00:27:56;;;;;;;3.50;1.42;;;4.60;59.70;;;;;;2491115;55;20949;-65
2021/04/16 00:31:02;;;;;;;3.10;1.40;;;4.60;59.70;;;;;;2257666;55;21055;-66
2021/04/16 00:33:33;;;;;;;3.60;1.73;;;4.50;59.40;;;;;;2256808;55;21537;-67
2021/04/16 00:35:59;;;;;;;3.70;1.48;;;4.50;59.60;;;;;;2483899;55;21004;-63
2021/04/16 00:39:12;;;;;;;4.12;1.50;;;4.50;59.60;;;;;;2251607;55;21004;-65
2021/04/16 00:41:45;;;;;;;3.75;1.25;;;4.50;59.50;;;;;;2487263;55;22077;-63
2021/04/16 00:44:11;;;;;;;4.00;1.40;;;4.40;59.60;;;;;;2270872;55;21687;-64
2021/04/16 00:47:01;;;;;;;2.90;1.37;;;4.40;59.60;;;;;;2258837;55;20977;-66
2021/04/16 00:49:45;;;;;;;2.85;1.50;;;4.40;59.50;;;;;;2497707;55;21030;-63
2021/04/16 00:52:12;;;;;;;3.53;1.45;;;4.40;59.70;;;;;;2251164;55;21519;-65
2021/04/16 00:54:40;;;;;;;2.78;1.30;;;4.40;59.80;;;;;;2478774;55;21426;-63
2021/04/16 00:57:46;;;;;;;3.85;1.50;;;4.40;59.80;;;;;;2248503;55;20976;-63
2021/04/16 01:00:13;;;;;;;3.33;1.50;;;4.30;59.60;;;;;;2246983;55;20972;-65
2021/04/16 01:03:08;;;;;;;2.70;1.20;;;4.30;59.90;;;;;;2257651;55;21509;-63
2021/04/16 01:05:35;;;;;;;3.22;1.45;;;4.30;59.80;;;;;;2254005;55;21048;-65
2021/04/16 01:08:06;;;;;;;3.60;1.40;;;4.30;60.00;;;;;;2486292;55;21050;-65
2021/04/16 01:10:32;;;;;;;3.85;1.40;;;4.30;60.00;;;;;;2484345;55;21907;-64
2021/04/16 01:12:59;;;;;;;4.37;1.80;;;4.30;60.00;;;;;;2475263;55;20921;-64
2021/04/16 01:15:29;;;;;;;3.30;1.37;;;4.30;60.00;;;;;;2246975;55;20977;-63
2021/04/16 01:17:56;;;;;;;4.28;1.55;;;4.30;60.00;;;;;;2475929;55;21492;-65
2021/04/16 01:20:43;;;;;;;2.70;1.50;;;4.30;60.00;;;;;;2254409;55;20964;-67
2021/04/16 01:23:58;;;;;;;3.70;1.60;;;4.30;60.00;;;;;;2481457;55;20996;-65
2021/04/16 01:26:30;;;;;;;4.70;1.80;;;4.30;60.00;;;;;;2492599;55;20985;-64
2021/04/16 01:28:56;;;;;;;4.68;1.70;;;4.30;60.20;;;;;;2263369;55;21080;-66
2021/04/16 01:31:24;;;;;;;3.35;1.60;;;4.30;60.30;;;;;;2258340;55;20968;-67
2021/04/16 01:33:52;;;;;;;2.90;1.37;;;4.30;60.40;;;;;;2489310;55;21008;-67
2021/04/16 01:36:30;;;;;;;3.45;1.42;;;4.30;60.40;;;;;;2502193;55;20991;-66
2021/04/16 01:38:56;;;;;;;3.58;1.58;;;4.30;60.40;;;;;;2263173;55;20960;-65
2021/04/16 01:41:25;;;;;;;4.95;1.70;;;4.30;60.50;;;;;;2260232;55;20932;-64
2021/04/16 01:44:02;;;;;;;3.20;1.60;;;4.30;60.50;;;;;;2488645;55;21457;-65
2021/04/16 01:46:28;;;;;;;4.97;1.87;;;4.30;60.50;;;;;;2488875;55;20949;-65
2021/04/16 01:49:02;;;;;;;4.22;1.92;;;4.30;60.60;;;;;;2489223;55;20952;-64
2021/04/16 01:51:30;;;;;;;3.85;1.70;;;4.30;60.60;;;;;;2259694;55;21009;-66
2021/04/16 01:54:47;;;;;;;3.70;2.10;;;4.30;60.70;;;;;;2260508;55;20961;-66
2021/04/16 01:57:20;;;;;;;4.12;2.15;;;4.30;61.20;;;;;;2488944;55;21434;-64
2021/04/16 01:59:47;;;;;;;4.50;2.20;;;4.30;60.70;;;;;;2488938;55;20937;-64
2021/04/16 02:02:16;;;;;;;3.30;1.98;;;4.30;60.70;;;;;;2282918;55;20950;-65
2021/04/16 02:04:43;;;;;;;3.78;1.87;;;4.30;60.70;;;;;;2261215;55;20932;-66
2021/04/16 02:07:09;;;;;;;5.53;2.30;;;4.40;60.80;;;;;;2488578;55;21036;-62
2021/04/16 02:09:38;;;;;;;4.30;1.85;;;4.40;60.80;;;;;;2261012;55;21496;-65
2021/04/16 02:12:07;;;;;;;6.53;2.25;;;4.40;60.70;;;;;;2269415;55;21006;-65
2021/04/16 02:14:34;;;;;;;5.05;2.22;;;4.40;60.70;;;;;;2277427;55;21466;-64
2021/04/16 02:17:06;;;;;;;5.62;2.40;;;4.40;60.80;;;;;;2283288;55;21648;-67
2021/04/16 02:19:32;;;;;;;3.87;2.15;;;4.40;60.70;;;;;;2256677;56;20954;-65
2021/04/16 02:22:00;;;;;;;5.78;2.28;;;4.40;60.70;;;;;;2260754;55;21008;-65
2021/04/16 02:24:27;;;;;;;5.40;2.15;;;4.40;60.80;;;;;;2483484;55;21028;-64
2021/04/16 02:26:54;;;;;;;6.60;2.50;;;4.40;60.90;;;;;;2275853;55;21539;-65
2021/04/16 02:29:20;;;;;;;6.43;2.50;;;4.40;60.90;;;;;;2484413;55;20957;-65
2021/04/16 02:31:47;;;;;;;4.97;1.90;;;4.40;61.00;;;;;;2251467;55;21794;-65
2021/04/16 02:34:23;;;;;;;4.65;1.90;;;4.40;61.00;;;;;;2251481;55;20972;-65
2021/04/16 02:37:13;;;;;;;4.85;2.33;;;4.40;61.00;;;;;;2247321;57;20972;-66
2021/04/16 02:39:40;;;;;;;4.82;2.28;;;4.50;60.80;;;;;;2248746;55;20949;-64
2021/04/16 02:42:08;;;;;;;4.37;2.22;;;4.50;61.00;;;;;;2250402;55;21932;-65
2021/04/16 02:44:34;;;;;;;5.15;2.10;;;4.40;60.80;;;;;;2470124;55;21431;-66
2021/04/16 02:47:02;;;;;;;3.80;1.92;;;4.50;60.90;;;;;;2475018;55;20957;-63
2021/04/16 02:49:31;;;;;;;5.07;2.20;;;4.50;60.90;;;;;;2478896;55;21572;-63
2021/04/16 02:51:57;;;;;;;3.90;2.00;;;4.40;60.80;;;;;;2479388;55;20941;-66
2021/04/16 02:54:25;;;;;;;4.60;2.05;;;4.40;60.80;;;;;;2251450;55;20975;-66
2021/04/16 02:56:55;;;;;;;4.60;2.33;;;4.40;60.70;;;;;;2252170;56;21033;-64
2021/04/16 02:59:21;;;;;;;5.55;2.62;;;4.40;60.90;;;;;;2259002;55;21717;-65
2021/04/16 03:01:48;;;;;;;4.53;2.33;;;4.50;61.00;;;;;;2255755;55;21801;-65
2021/04/16 03:04:14;;;;;;;3.35;1.75;;;4.50;61.00;;;;;;2261733;55;20949;-65
2021/04/16 03:06:41;;;;;;;3.72;2.00;;;4.40;60.80;;;;;;2250800;55;20945;-66
2021/04/16 03:09:09;;;;;;;4.15;2.20;;;4.40;60.70;;;;;;2251347;55;21643;-64
2021/04/16 03:11:35;;;;;;;5.15;2.20;;;4.50;60.90;;;;;;2259148;55;21061;-62
2021/04/16 03:14:02;;;;;;;5.28;2.45;;;4.40;60.70;;;;;;2276003;55;21928;-63
2021/04/16 03:16:28;;;;;;;4.85;2.28;;;4.40;60.70;;;;;;2253214;56;21034;-63
2021/04/16 03:18:56;;;;;;;3.97;2.15;;;4.40;60.80;;;;;;2474948;55;20988;-63
2021/04/16 03:21:23;;;;;;;4.18;1.80;;;4.40;60.80;;;;;;2490498;55;20954;-66
2021/04/16 03:23:49;;;;;;;3.70;1.80;;;4.40;60.70;;;;;;2263804;55;20972;-66
2021/04/16 03:26:15;;;;;;;4.03;1.70;;;4.40;60.70;;;;;;2261168;55;20973;-64
2021/04/16 03:28:42;;;;;;;4.10;1.70;;;4.40;60.70;;;;;;2475721;55;21098;-64
2021/04/16 03:31:08;;;;;;;4.68;2.30;;;4.40;60.70;;;;;;2260484;55;21516;-65
2021/04/16 03:33:34;;;;;;;3.92;2.10;;;4.40;60.60;;;;;;2480817;55;21371;-65
2021/04/16 03:36:01;;;;;;;4.57;2.15;;;4.40;60.60;;;;;;2247942;56;20968;-66
2021/04/16 03:38:27;;;;;;;3.97;2.20;;;4.40;60.60;;;;;;2255524;56;20976;-65
2021/04/16 03:40:54;;;;;;;5.35;2.10;;;4.40;60.50;;;;;;2251679;56;20952;-65
2021/04/16 03:43:20;;;;;;;4.07;1.90;;;4.30;60.40;;;;;;2469176;55;20947;-66
2021/04/16 03:45:46;;;;;;;5.20;2.00;;;4.30;60.40;;;;;;2453949;55;20975;-64
2021/04/16 03:48:13;;;;;;;5.85;2.00;;;4.30;60.40;;;;;;2247593;56;20977;-65
2021/04/16 03:50:39;;;;;;;4.43;2.00;;;4.20;60.30;;;;;;2253969;56;20941;-65
2021/04/16 03:53:08;;;;;;;4.55;2.20;;;4.30;60.30;;;;;;2254349;56;21390;-66
2021/04/16 03:55:35;;;;;;;5.55;2.15;;;4.20;60.20;;;;;;2256282;56;22337;-63
2021/04/16 03:58:01;;;;;;;4.82;1.80;;;4.20;60.30;;;;;;2255155;56;20924;-66
2021/04/16 04:00:33;;;;;;;4.10;2.15;;;4.10;60.10;;;;;;2481673;55;21516;-66
2021/04/16 04:02:59;;;;;;;3.30;1.77;;;3.90;60.00;;;;;;2238267;56;20954;-64
2021/04/16 04:05:26;;;;;;;4.30;1.95;;;4.00;60.10;;;;;;2241578;56;22023;-65
2021/04/16 04:07:53;;;;;;;5.03;1.87;;;4.00;60.20;;;;;;2476056;55;21426;-65
2021/04/16 04:10:21;;;;;;;4.25;1.90;;;4.00;60.20;;;;;;2246432;56;20964;-66
2021/04/16 04:12:47;;;;;;;3.45;1.80;;;3.90;60.20;;;;;;2455466;55;20971;-66
2021/04/16 04:15:14;;;;;;;4.15;2.10;;;3.90;60.20;;;;;;2483510;55;20977;-64
2021/04/16 04:17:42;;;;;;;3.70;1.60;;;3.90;60.30;;;;;;2483492;55;21032;-66
2021/04/16 04:20:11;;;;;;;3.83;1.62;;;3.80;60.20;;;;;;2255067;56;21517;-66
2021/04/16 04:22:38;;;;;;;3.28;1.70;;;3.80;60.10;;;;;;2255936;56;21709;-65
2021/04/16 04:25:05;;;;;;;5.03;1.92;;;3.80;60.20;;;;;;2256694;56;20941;-67
2021/04/16 04:27:31;;;;;;;4.07;1.70;;;3.70;60.10;;;;;;2445512;55;21021;-65
2021/04/16 04:29:58;;;;;;;3.67;1.95;;;3.70;60.20;;;;;;2244417;56;21428;-63
2021/04/16 04:32:24;;;;;;;4.70;1.70;;;3.70;60.20;;;;;;2230920;56;21787;-66
2021/04/16 04:34:50;;;;;;;3.78;1.70;;;3.70;60.10;;;;;;2252279;56;21000;-64
2021/04/16 04:37:20;;;;;;;5.80;2.00;;;3.60;60.10;;;;;;2461584;55;21546;-66
2021/04/16 04:39:48;;;;;;;4.00;2.00;;;3.60;60.10;;;;;;2245062;56;20957;-65
2021/04/16 04:42:14;;;;;;;3.67;1.90;;;3.50;60.10;;;;;;2487431;55;20973;-66
2021/04/16 04:44:40;;;;;;;3.50;1.92;;;3.50;60.10;;;;;;2464997;55;20986;-65
2021/04/16 04:47:10;;;;;;;4.53;2.22;;;3.50;60.20;;;;;;2471182;55;21052;-64
2021/04/16 04:49:37;;;;;;;4.95;2.37;;;3.50;60.30;;;;;;2449424;56;21474;-66
2021/04/16 04:52:30;;;;;;;3.80;1.67;;;3.40;60.20;;;;;;2482878;55;21000;-66
2021/04/16 04:54:58;;;;;;;4.18;2.00;;;3.40;60.20;;;;;;2456425;55;20947;-64
2021/04/16 04:57:25;;;;;;;4.62;2.30;;;3.40;60.30;;;;;;2452152;55;21769;-65
2021/04/16 04:59:52;;;;;;;7.32;1.90;;;3.30;60.30;;;;;;2229680;56;21051;-65
2021/04/16 05:02:22;;;;;;;5.90;2.55;;;3.30;60.40;;;;;;2228730;56;22279;-65
2021/04/16 05:04:49;;;;;;;3.70;1.90;;;3.30;60.50;;;;;;2258610;56;21628;-65
2021/04/16 05:07:15;;;;;;;3.47;1.83;;;3.20;60.50;;;;;;2243097;56;20979;-66
2021/04/16 05:09:41;;;;;;;4.90;2.50;;;3.20;60.50;;;;;;2477802;54;20965;-65
2021/04/16 05:12:11;;;;;;;4.53;2.10;;;3.20;60.70;;;;;;2235977;56;22040;-65
2021/04/16 05:14:37;;;;;;;4.90;2.30;;;3.20;60.80;;;;;;2251606;56;21771;-67
2021/04/16 05:17:05;;;;;;;4.07;1.90;;;3.20;60.80;;;;;;2232723;56;21055;-66
2021/04/16 05:19:31;;;;;;;3.80;2.03;;;3.20;60.80;;;;;;2480877;55;20931;-66
2021/04/16 05:21:59;;;;;;;3.62;2.03;;;3.20;60.90;;;;;;2273982;55;21532;-66
2021/04/16 05:24:25;;;;;;;3.55;1.90;;;3.10;60.80;;;;;;2255812;55;20972;-67
2021/04/16 05:26:51;;;;;;;4.47;2.30;;;3.10;60.80;;;;;;2488813;55;20988;-67
2021/04/16 05:29:17;;;;;;;4.40;2.30;;;3.10;60.90;;;;;;2264995;55;20988;-66
2021/04/16 05:31:44;;;;;;;5.85;2.50;;;3.10;61.00;;;;;;2272433;55;21029;-62
2021/04/16 05:34:16;;;;;;;;;;;3.10;61.20;;;;;;2263485;55;21016;-64
2021/04/16 05:36:43;;;;;;;6.35;2.97;;;3.20;60.60;;;;;;2268166;55;20117;-62
2021/04/16 05:39:13;;;;;;;7.87;3.15;;;3.20;61.30;;;;;;2281218;55;21022;-63
2021/04/16 05:41:40;;;;;;;5.20;2.42;;;3.20;61.50;;;;;;2264923;55;20945;-63
2021/04/16 05:44:07;;;;;;;7.75;4.28;;;3.20;61.60;;;;;;2260002;55;21496;-66
2021/04/16 05:46:37;;;;;;;9.35;4.22;;;3.20;61.70;;;;;;2490365;55;20936;-65
2021/04/16 05:49:03;;;;;;;8.10;4.22;;;3.20;61.80;;;;;;2259179;55;20904;-66
2021/04/16 05:51:29;;;;;;;8.82;4.82;;;3.30;62.00;;;;;;2258924;55;20997;-64
2021/04/16 05:53:56;;;;;;;10.95;5.32;;;3.30;62.10;;;;;;2259493;55;21004;-63
2021/04/16 05:56:23;;;;;;;7.37;4.05;;;3.40;62.20;;;;;;2498064;55;20938;-66
2021/04/16 05:58:49;;;;;;;7.97;4.37;;;3.40;62.30;;;;;;2265521;55;20960;-66
2021/04/16 06:01:15;;;;;;;8.13;4.40;;;3.40;62.40;;;;;;2270384;55;20949;-65
2021/04/16 06:03:46;;;;;;;6.53;3.25;;;3.50;62.70;;;;;;2265920;55;21278;-66
2021/04/16 06:06:13;;;;;;;7.15;3.25;;;3.50;62.80;;;;;;2483642;55;20960;-65
2021/04/16 06:08:40;;;;;;;7.43;3.42;;;3.60;62.90;;;;;;2487843;55;21339;-65
2021/04/16 06:11:07;;;;;;;7.93;3.20;;;3.70;63.10;;;;;;2259349;56;21029;-63
2021/04/16 06:13:38;;;;;;;5.85;2.58;;;3.70;63.10;;;;;;2261545;56;20913;-65
2021/04/16 06:16:10;;;;;;;6.17;3.53;;;3.80;63.30;;;;;;2247971;56;21764;-67
2021/04/16 06:18:36;;;;;;;7.20;3.60;;;3.90;63.30;;;;;;2259295;56;20941;-65
2021/04/16 06:21:03;;;;;;;5.22;2.92;;;4.00;63.40;;;;;;2256689;56;21029;-63
2021/04/16 06:23:29;;;;;;;5.90;3.25;;;4.10;63.50;;;;;;2261547;56;20973;-63
2021/04/16 06:25:56;;;;;;;4.90;2.90;;;4.10;63.50;;;;;;2252545;56;21772;-65
2021/04/16 06:28:22;;;;;;;6.25;3.45;;;4.20;63.60;;;;;;2259326;56;21554;-65
2021/04/16 06:30:51;;;;;;;6.35;3.15;;;4.30;63.80;;;;;;2259632;56;20952;-64
2021/04/16 06:33:24;;;;;;;5.30;3.33;;;4.40;63.90;;;;;;2484809;55;20975;-65
2021/04/16 06:39:30;;;;;;;6.20;3.05;;;4.60;64.10;;;;;;2485633;55;20941;-64
2021/04/16 06:41:57;;;;;;;5.62;3.45;;;4.70;64.50;;;;;;2479258;55;21505;-65
2021/04/16 06:44:25;;;;;;;5.10;2.95;;;4.80;64.70;;;;;;2254556;56;20940;-64
2021/04/16 06:48:19;;;;;;;8.75;3.92;;;5.00;65.00;;;;;;2252677;56;20972;-65
2021/04/16 06:51:16;;;;;;;6.62;3.30;;;5.10;65.40;;;;;;2488851;55;21953;-64
2021/04/16 06:53:55;;;;;;;6.07;3.40;;;5.50;67.10;;;;;;2490358;55;20988;-64
2021/04/16 06:56:26;;;;;;;5.90;3.95;;;5.80;68.90;;;;;;2481589;55;21045;-64
2021/04/16 06:59:05;;;;;;;5.68;3.12;;;6.20;70.50;;;;;;2262363;56;20965;-64
2021/04/16 07:02:17;;;;;;;6.07;3.33;;;6.60;71.80;;;;;;2263627;56;21012;-65
2021/04/16 07:08:19;;;;;;;5.10;2.90;;;7.80;73.50;;;;;;2488263;55;21044;-66
2021/04/16 07:10:45;;;;;;;5.32;2.90;;;8.50;75.10;;;;;;2261379;56;21414;-64
2021/04/16 07:13:19;;;;;;;5.22;3.25;;;9.10;76.50;;;;;;2480568;55;20988;-64
2021/04/16 07:15:46;;;;;;;5.43;3.22;;;9.70;76.80;;;;;;2481260;55;20967;-68
2021/04/16 07:18:58;;;;;;;6.35;3.17;;;10.30;75.70;;;;;;2486781;55;21065;-65
2021/04/16 07:21:24;;;;;;;5.05;2.83;;;10.90;73.30;;;;;;2491113;55;21028;-66
2021/04/16 07:23:58;;;;;;;5.65;3.30;;;11.60;73.80;;;;;;2491131;55;21479;-67
2021/04/16 07:26:57;;;;;;;7.47;3.78;;;12.00;72.20;;;;;;2489767;55;21943;-67
2021/04/16 07:29:47;;;;;;;6.20;3.45;;;12.60;69.40;;;;;;2490919;55;20961;-66
2021/04/16 07:32:39;;;;;;;6.93;2.90;;;13.00;67.60;;;;;;2255129;55;21021;-65
2021/04/16 07:48:29;;;;;;;4.03;2.60;;;13.30;65.70;;;;;;2473957;55;20984;-66
2021/04/16 07:50:56;;;;;;;4.00;2.30;;;13.90;63.10;;;;;;2491991;55;21008;-66
2021/04/16 07:53:41;;;;;;;3.45;2.28;;;13.80;62.20;;;;;;2281749;55;20950;-65
2021/04/16 07:56:28;;;;;;;3.97;2.20;;;13.60;60.40;;;;;;2490798;55;21303;-65
2021/04/16 07:59:01;;;;;;;3.87;2.33;;;13.40;59.90;;;;;;2280121;55;20954;-65
2021/04/16 08:01:32;;;;;;;4.22;2.53;;;13.20;60.90;;;;;;2262003;55;20984;-66
2021/04/16 08:04:12;;;;;;;4.12;2.50;;;13.10;60.70;;;;;;2491124;55;20944;-66
2021/04/16 08:06:42;;;;;;;;;;;12.90;60.40;;;;;;2499299;55;21014;-65
2021/04/16 08:09:29;;;;;;;4.45;2.53;;;12.70;58.90;;;;;;2282763;55;20061;-65
2021/04/16 08:12:13;;;;;;;4.22;2.80;;;12.60;61.30;;;;;;2284793;55;21061;-65
2021/04/16 08:14:42;;;;;;;5.12;2.90;;;12.60;62.90;;;;;;2269375;55;20929;-65
2021/04/16 08:17:28;;;;;;;4.85;3.30;;;12.60;64.50;;;;;;2262886;55;20941;-65
2021/04/16 08:19:54;;;;;;;4.50;3.00;;;12.80;63.80;;;;;;2262158;55;21756;-65
2021/04/16 08:22:28;;;;;;;4.18;2.87;;;13.00;66.50;;;;;;2262597;55;21454;-65
2021/04/16 08:24:58;;;;;;;4.05;2.55;;;13.20;65.90;;;;;;2490692;55;21666;-66
2021/04/16 08:27:59;;;;;;;4.32;2.58;;;13.30;64.50;;;;;;2261756;55;20988;-65
2021/04/16 08:31:45;;;;;;;4.10;2.45;;;13.40;61.60;;;;;;2279696;55;21117;-65
2021/04/16 08:34:23;;;;;;;3.22;2.05;;;13.40;60.90;;;;;;2497303;55;20974;-66
2021/04/16 08:36:50;;;;;;;4.82;2.75;;;13.30;60.40;;;;;;2499015;55;21473;-65
2021/04/16 08:39:50;;;;;;;5.40;2.30;;;13.30;61.50;;;;;;2495930;54;21013;-66
2021/04/16 08:42:26;;;;;;;3.62;2.33;;;13.20;59.80;;;;;;2271488;55;20953;-65
2021/04/16 08:44:57;;;;;;;4.18;2.37;;;13.20;60.70;;;;;;2491388;55;20941;-66
2021/04/16 08:48:20;;;;;;;3.65;2.03;;;13.10;61.00;;;;;;2490377;55;21465;-66
2021/04/16 08:51:09;;;;;;;3.60;2.15;;;13.10;60.10;;;;;;2258400;56;20983;-68
2021/04/16 08:53:38;;;;;;;3.80;2.20;;;13.10;60.20;;;;;;2490870;55;20956;-65
2021/04/16 08:57:30;;;;;;;4.00;2.30;;;13.10;60.90;;;;;;2260373;56;21554;-65
2021/04/16 09:00:01;;;;;;;3.55;2.05;;;13.00;58.90;;;;;;2490728;55;21048;-65
2021/04/16 09:02:31;;;;;;;4.28;1.92;;;13.00;60.30;;;;;;2485779;55;21011;-65
2021/04/16 09:06:50;;;;;;;4.20;2.30;;;13.00;60.20;;;;;;2257355;56;21012;-65
2021/04/16 09:09:48;;;;;;;5.47;2.00;;;12.90;58.50;;;;;;2237321;56;20992;-66
2021/04/16 09:13:03;;;;;;;3.28;1.98;;;12.90;58.90;;;;;;2460783;55;20984;-66
2021/04/16 09:15:49;;;;;;;3.30;2.05;;;12.80;57.70;;;;;;2459943;55;20943;-65
2021/04/16 09:18:27;;;;;;;3.62;2.15;;;12.60;57.90;;;;;;2236936;56;20912;-65
2021/04/16 09:22:16;;;;;;;4.28;2.28;;;12.50;58.10;;;;;;2237828;55;21010;-66
2021/04/16 09:24:55;;;;;;;3.75;1.80;;;12.40;57.60;;;;;;2244770;56;21008;-65
2021/04/16 09:27:40;;;;;;;5.05;2.30;;;12.30;58.40;;;;;;2251595;56;20938;-65
2021/04/16 09:30:32;;;;;;;4.25;2.37;;;12.20;57.40;;;;;;2490757;55;21041;-65
2021/04/16 09:34:23;;;;;;;4.37;2.40;;;12.00;57.20;;;;;;2266675;55;21028;-65
2021/04/16 09:36:52;;;;;;;3.90;1.90;;;11.90;57.40;;;;;;2490449;55;21024;-65
2021/04/16 09:39:36;;;;;;;4.80;2.12;;;11.80;58.10;;;;;;2490942;55;20977;-65
2021/04/16 09:44:13;;;;;;;3.40;1.92;;;11.70;57.20;;;;;;2269567;55;21451;-65
2021/04/16 09:46:42;;;;;;;3.78;2.20;;;11.50;57.00;;;;;;2263345;56;20965;-65
2021/04/16 09:49:11;;;;;;;3.60;1.92;;;11.40;58.40;;;;;;2262336;56;21087;-65
2021/04/16 09:53:26;;;;;;;4.07;2.22;;;11.40;58.50;;;;;;2491632;55;21028;-65
2021/04/16 09:56:16;;;;;;;3.72;2.12;;;11.40;57.80;;;;;;2262569;56;20993;-65
2021/04/16 09:59:43;;;;;;;3.83;2.08;;;11.40;58.20;;;;;;2270328;55;21414;-65
2021/04/16 10:02:21;;;;;;;3.97;1.65;;;11.40;57.50;;;;;;2265433;56;20968;-65
2021/04/16 10:05:12;;;;;;;4.78;2.25;;;11.50;58.60;;;;;;2490479;55;21489;-65
2021/04/16 10:08:01;;;;;;;3.45;1.73;;;11.50;58.40;;;;;;2265756;55;21913;-65
2021/04/16 10:10:42;;;;;;;3.30;1.50;;;11.60;58.80;;;;;;2244161;56;21025;-65
2021/04/16 10:13:31;;;;;;;3.03;1.42;;;11.70;59.30;;;;;;2491086;55;21534;-65
2021/04/16 10:15:59;;;;;;;2.72;1.35;;;11.80;58.80;;;;;;2268087;55;20981;-65
2021/04/16 10:18:39;;;;;;;3.08;1.55;;;11.80;59.40;;;;;;2228540;56;21016;-66
2021/04/16 10:52:18;;;;;;;3.67;2.20;;;13.80;63.10;;;;;;2259329;56;20993;-65
2021/04/16 11:10:55;;;;;;;3.35;2.20;;;14.90;60.20;;;;;;2469016;55;20989;-65
2021/04/16 12:39:35;;;;;;;3.55;2.15;;;14.80;58.60;;;;;;2271026;55;21005;-65
2021/04/16 12:42:03;;;;;;;3.20;1.90;;;14.90;58.00;;;;;;2489983;55;20961;-66
2021/04/16 12:44:48;;;;;;;3.72;2.08;;;15.10;58.10;;;;;;2479325;55;21762;-66
2021/04/16 12:47:35;;;;;;;3.62;1.90;;;15.20;56.10;;;;;;2259617;55;21596;-66
2021/04/16 12:50:04;;;;;;;3.53;1.87;;;15.30;55.40;;;;;;2488326;55;21017;-66
2021/04/16 12:52:31;;;;;;;3.90;1.95;;;15.30;56.20;;;;;;2470535;55;21015;-66
2021/04/16 12:54:57;;;;;;;3.25;1.80;;;15.30;56.10;;;;;;2240517;55;21100;-66
2021/04/16 12:57:44;;;;;;;3.53;1.90;;;15.30;55.90;;;;;;2462432;55;21052;-66
2021/04/16 13:00:21;;;;;;;4.57;2.03;;;15.20;54.70;;;;;;2484886;55;21478;-66
2021/04/16 13:03:04;;;;;;;3.00;1.87;;;15.20;53.90;;;;;;2250270;55;20968;-66
2021/04/16 13:05:32;;;;;;;3.12;1.92;;;15.10;53.90;;;;;;2474333;55;21448;-66
2021/04/16 13:07:58;;;;;;;3.72;1.92;;;15.00;54.70;;;;;;2475335;55;21116;-66
2021/04/16 13:10:25;;;;;;;2.80;1.67;;;14.80;54.20;;;;;;2474401;55;21032;-65
2021/04/16 13:12:52;;;;;;;3.30;1.80;;;14.90;54.10;;;;;;2269708;55;21557;-66
2021/04/16 13:15:18;;;;;;;4.03;2.05;;;14.80;53.90;;;;;;2258132;55;21406;-66
2021/04/16 13:17:47;;;;;;;2.83;1.65;;;14.70;53.80;;;;;;2265405;55;21062;-65
2021/04/16 13:20:14;;;;;;;3.20;1.80;;;14.60;53.80;;;;;;2494804;55;21384;-66
2021/04/16 13:22:44;;;;;;;3.03;1.77;;;14.50;53.60;;;;;;2463954;55;20984;-65
2021/04/16 13:25:14;;;;;;;3.65;2.00;;;14.40;53.30;;;;;;2246404;56;22167;-65
2021/04/16 13:27:42;;;;;;;2.78;1.65;;;14.20;53.00;;;;;;2248533;55;21136;-65
2021/04/16 13:30:13;;;;;;;3.65;2.00;;;14.20;52.90;;;;;;2413051;56;21042;-66
2021/04/16 13:32:43;;;;;;;3.10;1.75;;;14.00;52.60;;;;;;2442105;55;21409;-66
2021/04/16 13:35:12;;;;;;;2.97;1.75;;;13.90;52.50;;;;;;2422672;56;20931;-65
2021/04/16 13:37:38;;;;;;;3.67;1.80;;;13.70;52.70;;;;;;2440600;55;21493;-65
2021/04/16 13:40:07;;;;;;;3.92;1.87;;;13.70;53.00;;;;;;2439877;55;21080;-65
2021/04/16 13:42:35;;;;;;;4.05;1.80;;;13.60;52.90;;;;;;2217940;56;20965;-65
2021/04/16 13:45:04;;;;;;;3.85;2.20;;;13.50;52.90;;;;;;2228220;56;20988;-65
2021/04/16 13:47:34;;;;;;;4.10;2.65;;;13.40;52.90;;;;;;2212693;56;21485;-65
2021/04/16 13:50:04;;;;;;;4.60;2.55;;;13.30;52.60;;;;;;2208186;56;21888;-66
2021/04/16 13:52:32;;;;;;;4.75;3.00;;;13.20;52.70;;;;;;2438622;55;21655;-66
2021/04/16 13:54:58;;;;;;;4.68;2.60;;;13.10;52.80;;;;;;2237199;56;21029;-65
2021/04/16 13:57:27;;;;;;;4.40;2.53;;;13.10;53.20;;;;;;2236559;55;21037;-65
2021/04/16 13:59:53;;;;;;;3.80;2.37;;;13.00;53.50;;;;;;2226685;55;20977;-66
2021/04/16 14:02:33;;;;;;;4.68;2.30;;;13.00;53.70;;;;;;2227802;56;21810;-65
2021/04/16 14:05:03;;;;;;;3.65;1.92;;;13.00;53.30;;;;;;2454228;55;21398;-66
2021/04/16 14:07:30;;;;;;;4.20;2.40;;;12.90;53.90;;;;;;2213460;55;20985;-65
2021/04/16 14:10:02;;;;;;;4.43;2.60;;;12.90;54.20;;;;;;2209675;55;21505;-65
2021/04/16 14:12:28;;;;;;;3.28;1.92;;;12.90;54.20;;;;;;2205317;55;20952;-65
2021/04/16 14:14:57;;;;;;;5.07;2.75;;;12.90;54.00;;;;;;2203412;55;20964;-66
2021/04/16 14:17:26;;;;;;;3.53;2.33;;;12.90;53.90;;;;;;2204892;55;21064;-65
2021/04/16 14:20:10;;;;;;;4.97;2.58;;;12.90;54.20;;;;;;2422560;55;20973;-66
2021/04/16 14:22:42;;;;;;;4.07;2.25;;;12.90;53.60;;;;;;2214228;55;21500;-65
2021/04/16 14:25:14;;;;;;;3.40;2.30;;;13.00;54.60;;;;;;2428795;55;21472;-65
2021/04/16 14:27:43;;;;;;;3.30;2.08;;;13.10;54.40;;;;;;2213697;56;21965;-65
2021/04/16 14:30:24;;;;;;;3.97;2.35;;;13.10;54.40;;;;;;2197696;55;21016;-66
2021/04/16 14:32:56;;;;;;;4.00;2.47;;;13.10;54.00;;;;;;2194646;55;21766;-66
2021/04/16 14:35:25;;;;;;;3.83;2.35;;;13.10;54.00;;;;;;2427219;55;21780;-65
2021/04/16 14:37:52;;;;;;;3.60;2.42;;;13.10;54.00;;;;;;2200208;56;21712;-66
2021/04/16 14:40:19;;;;;;;3.60;2.40;;;13.10;53.80;;;;;;2206389;55;21393;-65
2021/04/16 14:42:48;;;;;;;3.53;2.30;;;13.00;53.60;;;;;;2194897;56;20965;-66
2021/04/16 14:45:28;;;;;;;5.55;2.80;;;13.00;53.50;;;;;;2394932;56;21555;-66
2021/04/16 14:47:56;;;;;;;3.42;2.28;;;13.00;52.90;;;;;;2386125;55;21019;-66
2021/04/16 14:50:24;;;;;;;3.00;2.00;;;12.90;53.20;;;;;;2398636;55;21945;-66
2021/04/16 14:52:53;;;;;;;4.10;2.15;;;12.90;53.10;;;;;;2201127;56;21562;-66
2021/04/16 14:55:25;;;;;;;3.78;2.40;;;12.90;53.30;;;;;;2216590;56;20957;-65
2021/04/16 14:57:56;;;;;;;4.50;2.62;;;12.80;53.20;;;;;;2201392;55;21513;-65
2021/04/16 15:00:35;;;;;;;4.68;2.53;;;12.80;53.80;;;;;;2228978;56;21859;-65
2021/04/16 15:03:14;;;;;;;4.80;2.92;;;12.70;52.90;;;;;;2215023;56;21605;-65
2021/04/16 15:05:44;;;;;;;4.60;2.72;;;12.60;53.00;;;;;;2211275;56;21002;-65
2021/04/16 15:08:17;;;;;;;4.93;2.55;;;12.60;53.20;;;;;;2416657;55;21814;-65
2021/04/16 15:10:49;;;;;;;4.07;2.60;;;12.50;53.10;;;;;;2217363;56;20986;-66
2021/04/16 15:13:25;;;;;;;4.53;2.47;;;12.40;53.10;;;;;;2208845;56;20984;-65
2021/04/16 15:16:00;;;;;;;4.05;2.83;;;12.40;53.20;;;;;;2423344;55;21070;-65
2021/04/16 15:19:47;;;;;;;4.00;2.40;;;12.40;53.30;;;;;;2211718;55;22580;-65
2021/04/16 15:23:19;;;;;;;4.72;2.45;;;12.30;52.80;;;;;;2211837;55;22236;-67
2021/04/16 15:26:09;;;;;;;4.25;2.75;;;12.20;53.20;;;;;;2406634;55;21716;-66
2021/04/16 15:29:00;;;;;;;5.35;3.28;;;12.20;53.50;;;;;;2189866;55;20979;-66
2021/04/16 15:31:40;;;;;;;5.22;2.55;;;12.10;52.80;;;;;;2204632;55;21861;-65
2021/04/16 15:47:20;;;;;;;6.28;2.87;;;11.70;53.50;;;;;;2222934;55;21824;-66
2021/04/16 15:49:49;;;;;;;5.95;2.42;;;11.70;54.40;;;;;;2426231;55;21502;-66
2021/04/16 15:52:19;;;;;;;4.03;2.37;;;11.70;54.50;;;;;;2434945;55;20978;-65
2021/04/16 15:54:50;;;;;;;4.55;2.58;;;11.70;54.40;;;;;;2209749;55;21756;-65
2021/04/16 15:57:21;;;;;;;5.33;2.90;;;11.60;54.30;;;;;;2214648;55;22092;-66
2021/04/16 15:59:50;;;;;;;3.53;2.08;;;11.70;54.50;;;;;;2428966;55;21836;-65
2021/04/16 16:02:22;;;;;;;3.95;2.53;;;11.60;54.40;;;;;;2202339;55;22109;-66
2021/04/16 16:04:50;;;;;;;4.55;2.67;;;11.70;54.50;;;;;;2430087;55;22004;-66
2021/04/16 16:07:18;;;;;;;4.18;2.35;;;11.60;54.50;;;;;;2440477;55;22105;-66
2021/04/16 16:09:52;;;;;;;4.55;2.60;;;11.60;54.40;;;;;;2441575;55;21485;-66
2021/04/16 16:12:19;;;;;;;3.75;2.30;;;11.60;54.20;;;;;;2453049;55;22179;-67
2021/04/16 16:14:50;;;;;;;4.93;2.33;;;11.60;54.50;;;;;;2445621;55;22223;-65
2021/04/16 16:17:28;;;;;;;5.10;2.37;;;11.60;54.40;;;;;;2432645;55;22182;-66
2021/04/16 16:19:59;;;;;;;3.75;2.22;;;11.60;54.80;;;;;;2206817;55;20941;-65
2021/04/16 16:22:29;;;;;;;4.07;2.53;;;11.60;54.40;;;;;;2202822;55;21449;-65